createdAt,value
2018-02-27T00:02:10.277Z,4.60
2018-02-27T00:04:37.708Z,5.27
2018-02-27T00:07:05.144Z,5.30
2018-02-27T00:09:32.575Z,4.57
2018-02-27T00:12:00.009Z,5.30
2018-02-27T00:14:28.196Z,4.90
2018-02-27T00:16:55.646Z,5.07
2018-02-27T00:19:23.086Z,5.23
2018-02-27T00:21:50.540Z,5.67
2018-02-27T00:24:17.952Z,5.07
2018-02-27T00:26:45.372Z,5.20
2018-02-27T00:29:13.580Z,4.70
2018-02-27T00:31:40.994Z,5.90
2018-02-27T00:34:08.432Z,4.77
2018-02-27T00:36:35.863Z,5.03
2018-02-27T00:39:04.093Z,5.00
2018-02-27T00:41:31.523Z,5.43
2018-02-27T00:43:58.988Z,5.80
2018-02-27T00:46:27.195Z,5.63
2018-02-27T00:48:54.669Z,5.87
2018-02-27T00:51:22.058Z,5.80
2018-02-27T00:53:49.491Z,5.10
2018-02-27T00:56:17.692Z,5.53
2018-02-27T00:58:45.112Z,5.70
2018-02-27T01:01:12.563Z,6.27
2018-02-27T01:03:39.980Z,5.47
2018-02-27T01:06:07.400Z,5.20
2018-02-27T01:08:35.615Z,5.37
2018-02-27T01:11:03.048Z,5.67
2018-02-27T01:13:30.470Z,6.00
2018-02-27T01:15:58.657Z,5.10
2018-02-27T01:18:26.093Z,5.80
2018-02-27T01:20:53.516Z,5.57
2018-02-27T01:23:21.698Z,5.47
2018-02-27T01:25:49.116Z,4.90
2018-02-27T01:28:16.540Z,5.77
2018-02-27T01:30:43.972Z,5.93
2018-02-27T01:33:12.213Z,5.87
2018-02-27T01:35:39.645Z,5.67
2018-02-27T01:38:07.089Z,5.87
2018-02-27T01:40:35.301Z,5.77
2018-02-27T01:43:02.748Z,5.67
2018-02-27T01:45:30.192Z,5.57
2018-02-27T01:47:57.628Z,5.47
2018-02-27T01:50:25.057Z,5.33
2018-02-27T01:52:52.518Z,6.47
2018-02-27T01:55:19.948Z,5.57
2018-02-27T01:57:47.397Z,5.33
2018-02-27T02:00:14.825Z,5.60
2018-02-27T02:02:42.260Z,3.27
2018-02-27T02:05:09.776Z,6.17
2018-02-27T02:07:37.191Z,4.70
2018-02-27T02:10:04.616Z,2.73
2018-02-27T02:12:32.084Z,5.53
2018-02-27T02:14:59.529Z,4.23
2018-02-27T02:17:26.992Z,3.97
2018-02-27T02:19:54.440Z,5.70
2018-02-27T02:22:21.856Z,6.20
2018-02-27T02:24:49.284Z,4.87
2018-02-27T02:27:16.733Z,5.63
2018-02-27T02:29:44.183Z,6.33
2018-02-27T02:32:11.608Z,5.40
2018-02-27T02:34:39.053Z,6.57
2018-02-27T02:37:06.484Z,2.83
2018-02-27T02:39:33.938Z,5.37
2018-02-27T02:45:01.660Z,5.93
2018-02-27T02:47:29.115Z,4.70
2018-02-27T02:49:56.523Z,5.53
2018-02-27T02:52:23.980Z,6.30
2018-02-27T02:54:51.410Z,5.07
2018-02-27T02:57:18.860Z,5.80
2018-02-27T02:59:46.323Z,5.93
2018-02-27T03:02:13.753Z,3.40
2018-02-27T03:04:41.221Z,4.70
2018-02-27T03:07:08.627Z,5.50
2018-02-27T03:09:36.064Z,4.57
2018-02-27T03:12:03.545Z,5.30
2018-02-27T03:14:30.988Z,6.03
2018-02-27T03:16:58.428Z,6.00
2018-02-27T03:19:25.872Z,5.17
2018-02-27T03:21:53.328Z,6.17
2018-02-27T03:24:20.772Z,3.37
2018-02-27T03:26:48.201Z,6.50
2018-02-27T03:29:15.640Z,5.47
2018-02-27T03:31:43.088Z,5.57
2018-02-27T03:34:10.556Z,6.07
2018-02-27T03:36:37.984Z,6.37
2018-02-27T03:39:05.409Z,5.10
2018-02-27T03:41:32.860Z,5.93
2018-02-27T03:44:00.288Z,5.30
2018-02-27T03:46:27.727Z,4.60
2018-02-27T03:48:55.189Z,5.23
2018-02-27T03:51:22.614Z,5.87
2018-02-27T03:53:50.051Z,5.73
2018-02-27T03:56:17.501Z,5.90
2018-02-27T03:58:44.944Z,5.77
2018-02-27T04:01:12.399Z,5.87
2018-02-27T04:03:39.852Z,5.70
2018-02-27T04:06:07.272Z,5.10
2018-02-27T04:08:34.695Z,5.87
2018-02-27T04:11:02.144Z,6.10
2018-02-27T04:13:29.596Z,6.50
2018-02-27T04:15:57.016Z,6.27
2018-02-27T04:18:24.469Z,4.70
2018-02-27T04:20:51.908Z,5.00
2018-02-27T04:23:19.339Z,4.60
2018-02-27T04:25:46.767Z,6.07
2018-02-27T04:28:14.209Z,6.27
2018-02-27T04:30:41.652Z,5.97
2018-02-27T04:33:09.100Z,5.77
2018-02-27T04:35:36.551Z,6.10
2018-02-27T04:38:03.996Z,3.83
2018-02-27T04:40:31.428Z,5.77
2018-02-27T04:42:58.879Z,6.17
2018-02-27T04:45:26.317Z,5.83
2018-02-27T04:47:53.755Z,4.77
2018-02-27T04:50:21.208Z,5.37
2018-02-27T04:52:48.659Z,5.90
2018-02-27T04:55:16.081Z,4.40
2018-02-27T04:57:43.523Z,6.37
2018-02-27T05:00:10.961Z,4.17
2018-02-27T05:02:38.416Z,5.30
2018-02-27T05:05:05.824Z,4.40
2018-02-27T05:07:33.277Z,5.77
2018-02-27T05:10:00.723Z,5.53
2018-02-27T05:12:28.164Z,6.17
2018-02-27T05:14:55.601Z,3.20
2018-02-27T05:17:23.037Z,5.90
2018-02-27T05:19:50.484Z,5.33
2018-02-27T05:22:17.916Z,5.63
2018-02-27T05:24:45.364Z,5.97
2018-02-27T05:27:12.817Z,6.73
2018-02-27T05:29:40.232Z,6.13
2018-02-27T05:32:07.665Z,6.10
2018-02-27T05:34:35.126Z,5.67
2018-02-27T05:37:02.587Z,5.97
2018-02-27T05:39:30.020Z,5.60
2018-02-27T05:41:57.439Z,6.07
2018-02-27T05:44:24.872Z,5.53
2018-02-27T05:46:52.324Z,6.50
2018-02-27T05:49:19.752Z,6.47
2018-02-27T05:51:47.935Z,6.13
2018-02-27T05:54:15.378Z,5.00
2018-02-27T05:56:42.817Z,6.83
2018-02-27T05:59:10.252Z,4.57
2018-02-27T06:01:37.700Z,6.20
2018-02-27T06:04:05.131Z,5.33
2018-02-27T06:06:32.560Z,5.50
2018-02-27T06:08:59.995Z,4.97
2018-02-27T06:11:28.191Z,5.70
2018-02-27T06:13:55.628Z,5.70
2018-02-27T06:16:23.060Z,5.17
2018-02-27T06:18:50.492Z,5.87
2018-02-27T06:21:17.921Z,4.03
2018-02-27T06:23:46.125Z,5.20
2018-02-27T06:26:13.585Z,5.23
2018-02-27T06:28:41.027Z,5.20
2018-02-27T06:31:08.464Z,6.60
2018-02-27T06:33:35.876Z,5.20
2018-02-27T06:36:03.307Z,6.17
2018-02-27T06:38:30.748Z,6.07
2018-02-27T06:40:58.207Z,6.27
2018-02-27T06:43:25.645Z,5.50
2018-02-27T06:45:53.068Z,5.77
2018-02-27T06:48:20.492Z,6.10
2018-02-27T06:50:47.924Z,5.33
2018-02-27T06:53:15.350Z,5.30
2018-02-27T06:55:42.790Z,6.97
2018-02-27T06:58:11.724Z,5.43
2018-02-27T07:00:39.160Z,6.47
2018-02-27T07:03:06.586Z,6.77
2018-02-27T07:05:34.024Z,5.53
2018-02-27T07:08:02.244Z,6.27
2018-02-27T07:10:29.672Z,6.67
2018-02-27T07:12:57.113Z,5.30
2018-02-27T07:15:24.555Z,7.30
2018-02-27T07:17:52.010Z,6.10
2018-02-27T07:20:19.436Z,4.50
2018-02-27T07:22:46.881Z,5.23
2018-02-27T07:25:14.321Z,3.67
2018-02-27T07:27:41.748Z,5.83
2018-02-27T07:30:09.245Z,7.37
2018-02-27T07:32:36.625Z,6.10
2018-02-27T07:35:04.056Z,8.00
2018-02-27T07:37:31.491Z,6.27
2018-02-27T07:39:58.932Z,7.10
2018-02-27T07:42:27.109Z,5.63
2018-02-27T07:44:54.544Z,5.70
2018-02-27T07:47:21.972Z,7.27
2018-02-27T07:49:49.406Z,7.00
2018-02-27T07:52:17.595Z,6.97
2018-02-27T07:54:45.025Z,6.63
2018-02-27T07:57:12.439Z,6.17
2018-02-27T07:59:40.631Z,6.83
2018-02-27T08:02:08.052Z,7.03
2018-02-27T08:04:35.476Z,7.33
2018-02-27T08:07:03.672Z,5.50
2018-02-27T08:09:31.097Z,7.70
2018-02-27T08:11:58.537Z,7.30
2018-02-27T08:14:26.731Z,6.53
2018-02-27T08:16:54.161Z,6.43
2018-02-27T08:19:21.593Z,6.93
2018-02-27T08:21:49.024Z,3.60
2018-02-27T08:24:16.450Z,3.80
2018-02-27T08:26:44.652Z,7.63
2018-02-27T08:29:12.068Z,7.07
2018-02-27T08:31:39.503Z,3.27
2018-02-27T08:34:06.936Z,6.30
2018-02-27T08:36:35.152Z,7.27
2018-02-27T08:39:02.571Z,4.80
2018-02-27T08:41:29.993Z,7.67
2018-02-27T08:43:57.419Z,4.03
2018-02-27T08:46:25.628Z,8.70
2018-02-27T08:48:53.048Z,7.33
2018-02-27T08:51:20.476Z,7.70
2018-02-27T08:53:47.911Z,7.47
2018-02-27T08:56:15.343Z,6.13
2018-02-27T08:58:43.542Z,6.33
2018-02-27T09:01:10.961Z,7.50
2018-02-27T09:03:38.393Z,7.00
2018-02-27T09:06:05.812Z,8.80
2018-02-27T09:08:34.016Z,7.77
2018-02-27T09:11:01.436Z,5.90
2018-02-27T09:13:28.862Z,4.77
2018-02-27T09:15:57.059Z,7.73
2018-02-27T09:18:24.488Z,9.27
2018-02-27T09:20:51.944Z,7.97
2018-02-27T09:23:19.369Z,7.23
2018-02-27T09:25:46.810Z,8.27
2018-02-27T09:28:14.243Z,7.90
2018-02-27T09:30:42.450Z,9.20
2018-02-27T09:33:09.864Z,9.37
2018-02-27T09:35:37.312Z,10.00
2018-02-27T09:38:04.732Z,9.73
2018-02-27T09:40:32.179Z,9.90
2018-02-27T09:42:59.603Z,8.93
2018-02-27T09:45:27.796Z,7.70
2018-02-27T09:47:55.219Z,9.77
2018-02-27T09:50:22.652Z,8.40
2018-02-27T09:52:50.099Z,8.53
2018-02-27T09:55:17.544Z,10.43
2018-02-27T09:57:44.973Z,11.00
2018-02-27T10:00:12.412Z,10.03
2018-02-27T10:02:40.592Z,10.13
2018-02-27T10:05:08.044Z,9.77
2018-02-27T10:07:35.468Z,10.30
2018-02-27T10:10:02.895Z,10.67
2018-02-27T10:12:30.316Z,9.73
2018-02-27T10:14:58.520Z,9.53
2018-02-27T10:17:25.941Z,11.37
2018-02-27T10:19:53.377Z,9.80
2018-02-27T10:22:21.585Z,10.63
2018-02-27T10:24:49.031Z,11.57
2018-02-27T10:27:16.481Z,10.17
2018-02-27T10:29:43.904Z,11.53
2018-02-27T10:32:11.336Z,8.33
2018-02-27T10:34:38.784Z,10.93
2018-02-27T10:37:06.217Z,11.20
2018-02-27T10:39:33.661Z,7.57
2018-02-27T10:42:01.105Z,9.93
2018-02-27T10:44:28.548Z,11.20
2018-02-27T10:46:55.976Z,11.37
2018-02-27T10:49:23.411Z,9.93
2018-02-27T10:51:50.852Z,11.07
2018-02-27T10:54:18.269Z,9.10
2018-02-27T10:56:46.473Z,12.00
2018-02-27T10:59:13.912Z,11.30
2018-02-27T11:01:41.348Z,11.00
2018-02-27T11:04:08.784Z,10.97
2018-02-27T11:06:36.232Z,11.57
2018-02-27T11:09:03.660Z,7.73
2018-02-27T11:11:31.088Z,10.67
2018-02-27T11:13:58.549Z,11.80
2018-02-27T11:16:26.708Z,12.43
2018-02-27T11:18:54.160Z,11.13
2018-02-27T11:21:21.583Z,12.73
2018-02-27T11:23:49.012Z,12.03
2018-02-27T11:26:16.439Z,11.87
2018-02-27T11:28:44.653Z,11.73
2018-02-27T11:31:12.080Z,11.63
2018-02-27T11:33:39.512Z,11.93
2018-02-27T11:36:06.932Z,10.67
2018-02-27T11:38:34.370Z,12.93
2018-02-27T11:41:02.568Z,12.03
2018-02-27T11:43:29.998Z,10.57
2018-02-27T11:45:57.429Z,12.70
2018-02-27T11:48:24.856Z,10.50
2018-02-27T11:50:52.284Z,10.53
2018-02-27T11:53:20.488Z,11.13
2018-02-27T11:55:47.907Z,12.73
2018-02-27T11:58:15.343Z,12.27
2018-02-27T12:00:42.822Z,11.80
2018-02-27T12:03:10.244Z,12.13
2018-02-27T12:05:37.691Z,12.17
2018-02-27T12:08:05.113Z,10.87
2018-02-27T12:10:32.876Z,12.47
2018-02-27T12:13:00.303Z,12.07
2018-02-27T12:15:27.748Z,12.13
2018-02-27T12:17:55.168Z,10.33
2018-02-27T12:20:23.380Z,9.43
2018-02-27T12:22:50.813Z,11.40
2018-02-27T12:25:18.243Z,11.73
2018-02-27T12:27:45.684Z,9.67
2018-02-27T12:30:13.119Z,7.07
2018-02-27T12:32:41.300Z,11.00
2018-02-27T12:35:08.786Z,10.43
2018-02-27T12:37:36.165Z,10.63
2018-02-27T12:40:03.597Z,10.77
2018-02-27T12:42:31.037Z,12.37
2018-02-27T12:44:58.475Z,11.80
2018-02-27T12:47:26.668Z,11.27
2018-02-27T12:49:54.108Z,13.40
2018-02-27T12:52:21.539Z,11.50
2018-02-27T12:54:48.968Z,12.43
2018-02-27T12:57:16.412Z,13.50
2018-02-27T12:59:43.832Z,13.40
2018-02-27T13:02:12.035Z,12.80
2018-02-27T13:04:39.477Z,12.77
2018-02-27T13:07:06.908Z,11.57
2018-02-27T13:09:34.345Z,13.57
2018-02-27T13:12:01.775Z,14.40
2018-02-27T13:14:29.223Z,13.27
2018-02-27T13:16:56.664Z,14.43
2018-02-27T13:19:24.107Z,13.93
2018-02-27T13:21:51.584Z,13.10
2018-02-27T13:24:19.033Z,11.07
2018-02-27T13:26:46.481Z,11.00
2018-02-27T13:29:13.911Z,12.67
2018-02-27T13:31:41.380Z,11.90
2018-02-27T13:34:08.800Z,9.70
2018-02-27T13:36:36.228Z,9.97
2018-02-27T13:39:03.669Z,11.63
2018-02-27T13:41:31.100Z,10.80
2018-02-27T13:43:58.542Z,12.43
2018-02-27T13:46:25.984Z,11.43
2018-02-27T13:48:53.410Z,11.53
2018-02-27T13:51:20.856Z,12.37
2018-02-27T13:53:48.275Z,11.77
2018-02-27T13:56:15.720Z,11.90
2018-02-27T13:58:43.156Z,11.97
2018-02-27T14:01:10.584Z,12.97
2018-02-27T14:03:38.781Z,12.43
2018-02-27T14:06:06.223Z,12.57
2018-02-27T14:08:33.648Z,12.27
2018-02-27T14:11:01.076Z,12.03
2018-02-27T14:13:29.273Z,12.53
2018-02-27T14:15:56.717Z,12.10
2018-02-27T14:18:24.156Z,10.87
2018-02-27T14:20:51.603Z,13.40
2018-02-27T14:23:19.044Z,13.00
2018-02-27T14:25:46.471Z,12.43
2018-02-27T14:28:13.908Z,13.20
2018-02-27T14:30:41.337Z,13.43
2018-02-27T14:33:08.777Z,12.20
2018-02-27T14:35:36.200Z,12.20
2018-02-27T14:38:04.405Z,12.80
2018-02-27T14:40:32.411Z,12.30
2018-02-27T14:43:00.632Z,12.90
2018-02-27T14:45:28.096Z,12.03
2018-02-27T14:47:55.543Z,12.93
2018-02-27T14:50:22.962Z,13.37
2018-02-27T14:52:50.385Z,11.33
2018-02-27T14:55:17.824Z,13.93
2018-02-27T14:57:45.272Z,13.03
2018-02-27T15:00:12.700Z,9.07
2018-02-27T15:02:40.148Z,12.33
2018-02-27T15:05:07.584Z,12.27
2018-02-27T15:07:35.051Z,13.43
2018-02-27T15:10:02.480Z,14.50
2018-02-27T15:12:29.935Z,13.10
2018-02-27T15:14:57.388Z,12.87
2018-02-27T15:17:25.601Z,14.63
2018-02-27T15:19:53.040Z,13.30
2018-02-27T15:22:20.495Z,12.43
2018-02-27T15:24:47.916Z,13.70
2018-02-27T15:27:15.365Z,12.90
2018-02-27T15:29:42.783Z,13.23
2018-02-27T15:32:10.993Z,13.23
2018-02-27T15:34:38.440Z,13.00
2018-02-27T15:37:05.856Z,10.93
2018-02-27T15:39:33.296Z,12.27
2018-02-27T15:42:00.722Z,13.90
2018-02-27T15:44:28.153Z,13.33
2018-02-27T15:46:56.348Z,14.00
2018-02-27T15:49:23.796Z,14.20
2018-02-27T15:51:51.221Z,13.17
2018-02-27T15:54:18.664Z,12.43
2018-02-27T15:56:46.095Z,13.53
2018-02-27T15:59:13.544Z,12.03
2018-02-27T16:01:40.980Z,11.03
2018-02-27T16:04:08.418Z,13.80
2018-02-27T16:06:35.844Z,13.33
2018-02-27T16:09:04.053Z,12.77
2018-02-27T16:11:31.496Z,14.53
2018-02-27T16:13:58.921Z,11.30
2018-02-27T16:16:26.358Z,13.00
2018-02-27T16:18:53.781Z,12.80
2018-02-27T16:21:21.207Z,12.23
2018-02-27T16:23:49.410Z,13.87
2018-02-27T16:26:16.835Z,10.17
2018-02-27T16:28:44.288Z,12.23
2018-02-27T16:31:11.711Z,12.23
2018-02-27T16:33:39.192Z,12.27
2018-02-27T16:36:06.600Z,11.57
2018-02-27T16:38:34.052Z,12.23
2018-02-27T16:41:01.476Z,11.50
2018-02-27T16:43:28.924Z,13.00
2018-02-27T16:45:56.392Z,12.97
2018-02-27T16:48:23.820Z,13.13
2018-02-27T16:50:51.243Z,14.43
2018-02-27T16:53:18.680Z,13.20
2018-02-27T16:55:46.127Z,13.93
2018-02-27T16:58:13.556Z,13.30
2018-02-27T17:00:40.990Z,12.87
2018-02-27T17:03:09.204Z,12.20
2018-02-27T17:05:36.647Z,10.10
2018-02-27T17:08:04.080Z,13.07
2018-02-27T17:10:31.523Z,12.30
2018-02-27T17:12:58.950Z,11.93
2018-02-27T17:15:26.388Z,12.00
2018-02-27T17:17:53.817Z,11.53
2018-02-27T17:20:21.261Z,13.03
2018-02-27T17:22:48.696Z,12.23
2018-02-27T17:25:16.160Z,13.73
2018-02-27T17:27:43.572Z,12.47
2018-02-27T17:30:11.012Z,11.50
2018-02-27T17:32:38.473Z,12.50
2018-02-27T17:35:05.912Z,11.20
2018-02-27T17:37:33.360Z,11.80
2018-02-27T17:40:00.786Z,13.23
2018-02-27T17:42:28.221Z,12.57
2018-02-27T17:44:56.439Z,12.43
2018-02-27T17:47:23.876Z,13.13
2018-02-27T17:49:51.308Z,13.20
2018-02-27T17:52:18.756Z,13.50
2018-02-27T17:54:46.212Z,13.87
2018-02-27T17:57:15.536Z,13.73
2018-02-27T17:59:44.307Z,13.50
2018-02-27T18:02:12.500Z,13.67
2018-02-27T18:04:39.952Z,14.00
2018-02-27T18:07:07.376Z,14.00
2018-02-27T18:09:34.801Z,14.50
2018-02-27T18:12:03.866Z,14.30
2018-02-27T18:14:31.284Z,12.57
2018-02-27T18:16:58.739Z,14.13
2018-02-27T18:19:26.969Z,13.43
2018-02-27T18:21:54.408Z,13.57
2018-02-27T18:24:24.099Z,14.07
2018-02-27T18:26:52.907Z,12.93
2018-02-27T18:29:23.174Z,13.20
2018-02-27T18:31:50.830Z,12.63
2018-02-27T18:34:18.247Z,14.17
2018-02-27T18:36:45.719Z,15.17
2018-02-27T18:39:13.152Z,13.77
2018-02-27T18:41:40.593Z,15.00
2018-02-27T18:44:08.070Z,13.87
2018-02-27T18:46:35.467Z,14.07
2018-02-27T18:49:02.928Z,12.57
2018-02-27T18:51:30.359Z,13.10
2018-02-27T18:53:57.798Z,13.17
2018-02-27T18:56:25.230Z,13.70
2018-02-27T18:58:52.684Z,13.27
2018-02-27T19:01:20.132Z,13.27
2018-02-27T19:03:47.564Z,14.97
2018-02-27T19:06:15.002Z,14.63
2018-02-27T19:08:43.198Z,15.00
2018-02-27T19:11:11.456Z,15.33
2018-02-27T19:13:38.929Z,15.23
2018-02-27T19:16:06.368Z,14.17
2018-02-27T19:18:33.792Z,13.70
2018-02-27T19:21:01.994Z,14.43
2018-02-27T19:23:29.412Z,13.67
2018-02-27T19:25:56.873Z,15.73
2018-02-27T19:28:24.328Z,16.73
2018-02-27T19:30:51.763Z,14.27
2018-02-27T19:33:19.199Z,14.80
2018-02-27T19:35:46.637Z,15.20
2018-02-27T19:38:14.077Z,15.80
2018-02-27T19:40:41.521Z,14.60
2018-02-27T19:43:08.973Z,14.07
2018-02-27T19:45:36.404Z,15.23
2018-02-27T19:48:03.840Z,16.00
2018-02-27T19:50:31.685Z,15.07
2018-02-27T19:52:59.857Z,15.80
2018-02-27T19:55:27.365Z,15.90
2018-02-27T19:57:55.556Z,14.60
2018-02-27T20:00:23.006Z,15.93
2018-02-27T20:02:50.444Z,15.43
2018-02-27T20:05:17.958Z,16.33
2018-02-27T20:07:45.345Z,16.00
2018-02-27T20:10:12.866Z,16.17
2018-02-27T20:12:40.300Z,14.87
2018-02-27T20:15:07.736Z,16.20
2018-02-27T20:17:35.176Z,16.77
2018-02-27T20:20:02.630Z,17.23
2018-02-27T20:22:35.644Z,17.23
2018-02-27T20:25:03.106Z,17.30
2018-02-27T20:27:31.300Z,17.77
2018-02-27T20:29:58.748Z,16.97
2018-02-27T20:32:26.172Z,15.60
2018-02-27T20:34:53.664Z,16.57
2018-02-27T20:37:21.083Z,16.33
2018-02-27T20:39:48.529Z,16.57
2018-02-27T20:42:16.003Z,18.37
2018-02-27T20:44:43.432Z,18.03
2018-02-27T20:47:10.867Z,16.17
2018-02-27T20:49:38.321Z,15.73
2018-02-27T20:52:05.760Z,15.73
2018-02-27T20:54:33.216Z,15.77
2018-02-27T20:57:02.148Z,16.93
2018-02-27T20:59:29.580Z,15.97
2018-02-27T21:01:57.018Z,16.47
2018-02-27T21:04:24.476Z,14.30
2018-02-27T21:06:51.913Z,17.83
2018-02-27T21:09:19.351Z,17.83
2018-02-27T21:11:46.793Z,18.83
2018-02-27T21:14:14.232Z,18.27
2018-02-27T21:16:41.688Z,16.97
2018-02-27T21:19:09.129Z,17.83
2018-02-27T21:21:36.572Z,15.77
2018-02-27T21:24:04.461Z,17.30
2018-02-27T21:26:31.880Z,17.47
2018-02-27T21:28:59.329Z,18.80
2018-02-27T21:31:26.748Z,18.97
2018-02-27T21:33:54.194Z,17.67
2018-02-27T21:36:21.620Z,18.43
2018-02-27T21:38:49.117Z,17.30
2018-02-27T21:41:16.550Z,18.23
2018-02-27T21:43:43.995Z,19.17
2018-02-27T21:46:11.459Z,17.43
2018-02-27T21:48:38.864Z,18.80
2018-02-27T21:51:06.300Z,17.60
2018-02-27T21:53:33.752Z,17.17
2018-02-27T21:56:01.209Z,18.13
2018-02-27T21:58:28.652Z,17.67
2018-02-27T22:00:56.875Z,19.20
2018-02-27T22:03:24.311Z,18.43
2018-02-27T22:05:51.760Z,16.83
2018-02-27T22:08:19.228Z,19.00
2018-02-27T22:10:46.673Z,17.97
2018-02-27T22:13:14.120Z,19.67
2018-02-27T22:15:41.552Z,19.20
2018-02-27T22:18:09.027Z,18.83
2018-02-27T22:20:37.240Z,19.73
2018-02-27T22:23:04.692Z,17.53
2018-02-27T22:25:32.905Z,17.67
2018-02-27T22:28:00.372Z,17.80
2018-02-27T22:30:27.804Z,17.43
2018-02-27T22:32:55.257Z,18.30
2018-02-27T22:35:22.692Z,18.13
2018-02-27T22:37:50.132Z,18.00
2018-02-27T22:40:17.572Z,20.17
2018-02-27T22:42:45.016Z,18.60
2018-02-27T22:45:12.476Z,18.17
2018-02-27T22:47:39.960Z,19.50
2018-02-27T22:50:08.135Z,19.00
2018-02-27T22:52:35.593Z,18.57
2018-02-27T22:55:03.060Z,18.93
2018-02-27T22:57:30.499Z,19.40
2018-02-27T22:59:57.952Z,18.63
2018-02-27T23:02:25.412Z,19.60
2018-02-27T23:04:53.624Z,19.87
2018-02-27T23:07:21.076Z,20.63
2018-02-27T23:09:48.544Z,19.13
2018-02-27T23:12:15.960Z,19.07
2018-02-27T23:14:43.409Z,19.37
2018-02-27T23:17:10.868Z,19.73
2018-02-27T23:19:38.309Z,18.57
2018-02-27T23:22:05.750Z,18.43
2018-02-27T23:24:36.278Z,18.97
2018-02-27T23:27:04.325Z,19.67
2018-02-27T23:29:31.795Z,19.80
2018-02-27T23:31:59.325Z,18.60
2018-02-27T23:34:30.412Z,19.90
2018-02-27T23:36:57.840Z,18.70
2018-02-27T23:39:25.302Z,20.20
2018-02-27T23:41:52.744Z,19.13
2018-02-27T23:44:20.204Z,20.97
2018-02-27T23:46:47.666Z,21.70
2018-02-27T23:49:15.861Z,18.73
2018-02-27T23:51:43.328Z,19.33
2018-02-27T23:54:10.772Z,20.10
2018-02-27T23:56:38.233Z,18.83
2018-02-27T23:59:05.680Z,19.57
